CheckWX is a tool to help pilots better visualize weather data.  It is not intended as a substitute for an official pre-flight weather briefing.

05:17:10 UTC

KWVI METAR
Watsonville Municipal Airport
Watsonville, California, USA
Current

24 mins ago

KWVI 100453Z AUTO 34003KT 10SM BKN006 10/M01 A3022 RMK AO2 SLP232 T01001011
Observed
Dec-10 @ 04:53 UTC
Wind
  • 340° at 3 KTS
Visibility
10 SM
Flight Rules
IFR
Cloud Levels
  • Broken at 600' AGL
Temperature
10°C / 50°F
Dewpoint
-1°C / 30°F
Humidity
47%
Altimeter
30.22" Hg
Pressure
1023.42 hPa
Previous

33 mins ago

KWVI 100444Z AUTO 32005KT 10SM SCT006 09/M01 A3021 RMK AO2 T00941011
Observed
Dec-10 @ 04:44 UTC
Wind
  • 320° at 5 KTS
Visibility
10 SM
Flight Rules
VFR
Cloud Levels
  • Scattered at 600' AGL
Temperature
C / 48°F
Dewpoint
-1°C / 30°F
Humidity
50%
Altimeter
30.21" Hg
Pressure
1023.02 hPa
Previous

1 hour ago

KWVI 100353Z AUTO 00000KT 10SM CLR 10/M01 A3020 RMK AO2 SLP225 T01001006
Observed
Dec-10 @ 03:53 UTC
Visibility
10 SM
Flight Rules
VFR
Cloud Levels
  • Clear skies
Temperature
10°C / 50°F
Dewpoint
-1°C / 30°F
Humidity
47%
Altimeter
30.2" Hg
Pressure
1022.72 hPa